Time;durP1;ratioP1;P1;durP2;ratioP2;P2;SDS_P1;SDS_P2;PMS_P1;PMS_P2;Temp;Humidity;BMP_temperature;BMP_pressure;BME280_temperature;BME280_humidity;BME280_pressure;Samples;Min_cycle;Max_cycle;Signal;HPM_P1;HPM_P2
2022/06/07 00:00:49;;;;;;;7.77;5.20;;;15.70;97.30;;;;;;5032818;28;20415;-82
2022/06/07 00:03:15;;;;;;;11.27;4.63;;;15.70;97.30;;;;;;5032868;28;20811;-82
2022/06/07 00:05:43;;;;;;;8.80;4.70;;;15.70;97.30;;;;;;5032691;28;20183;-82
2022/06/07 00:08:10;;;;;;;6.60;4.90;;;15.70;97.30;;;;;;5032789;28;20168;-82
2022/06/07 00:10:36;;;;;;;6.47;4.63;;;15.70;97.30;;;;;;5033688;28;20505;-82
2022/06/07 00:13:04;;;;;;;9.80;5.20;;;15.70;97.30;;;;;;5033343;28;20472;-83
2022/06/07 00:15:33;;;;;;;6.80;4.70;;;15.70;97.30;;;;;;5032452;28;20797;-82
2022/06/07 00:17:59;;;;;;;7.20;4.53;;;15.70;97.30;;;;;;5032765;28;20840;-82
2022/06/07 00:20:25;;;;;;;16.80;6.97;;;15.70;97.30;;;;;;5032317;28;20436;-83
2022/06/07 00:22:51;;;;;;;9.90;5.27;;;15.80;97.30;;;;;;5032350;28;20659;-83
2022/06/07 00:25:17;;;;;;;7.23;4.33;;;15.80;97.30;;;;;;5032155;28;20275;-82
2022/06/07 00:27:44;;;;;;;6.43;4.43;;;15.80;97.30;;;;;;5050467;28;20545;-83
2022/06/07 00:30:12;;;;;;;6.77;4.20;;;15.80;97.30;;;;;;5049988;28;20188;-82
2022/06/07 00:32:39;;;;;;;5.83;4.10;;;15.80;97.30;;;;;;5032490;28;20649;-82
2022/06/07 00:35:06;;;;;;;8.03;5.00;;;15.80;97.30;;;;;;5032801;28;20435;-82
2022/06/07 00:37:31;;;;;;;6.03;4.67;;;15.80;97.30;;;;;;5032212;28;20447;-82
2022/06/07 00:39:57;;;;;;;6.23;4.40;;;15.70;97.30;;;;;;5031690;28;20426;-81
2022/06/07 00:42:22;;;;;;;12.40;4.77;;;15.70;97.30;;;;;;5032397;28;20241;-82
2022/06/07 00:44:48;;;;;;;8.80;4.97;;;15.70;97.30;;;;;;5031787;28;20223;-82
2022/06/07 00:47:15;;;;;;;7.50;5.03;;;15.70;97.30;;;;;;5032203;28;20192;-82
2022/06/07 00:50:08;;;;;;;11.70;5.10;;;15.70;97.30;;;;;;5049984;28;20286;-82
2022/06/07 00:52:35;;;;;;;8.40;5.53;;;15.70;97.30;;;;;;5032541;28;20778;-82
2022/06/07 00:55:03;;;;;;;14.00;4.80;;;15.70;97.30;;;;;;5032161;28;20414;-83
2022/06/07 00:57:29;;;;;;;9.37;5.00;;;15.70;97.30;;;;;;5035444;28;20446;-83
2022/06/07 00:59:55;;;;;;;9.27;4.43;;;15.70;97.30;;;;;;5053528;28;20976;-83
2022/06/07 01:02:21;;;;;;;7.50;4.67;;;15.60;97.30;;;;;;5028953;28;20189;-82
2022/06/07 01:04:47;;;;;;;10.80;4.93;;;15.60;97.30;;;;;;5028674;28;20577;-82
2022/06/07 01:12:57;;;;;;;6.90;4.40;;;15.60;97.30;;;;;;5047266;28;20503;-82
2022/06/07 01:15:23;;;;;;;7.60;5.50;;;15.60;97.30;;;;;;5035241;28;20425;-82
2022/06/07 01:17:48;;;;;;;6.57;4.87;;;15.50;97.30;;;;;;5035549;28;20199;-82
2022/06/07 01:20:14;;;;;;;9.07;4.87;;;15.50;97.30;;;;;;5035019;28;20176;-82
2022/06/07 01:22:40;;;;;;;11.57;5.13;;;15.50;97.30;;;;;;5035110;28;20233;-82
2022/06/07 01:25:07;;;;;;;13.70;5.00;;;15.50;97.30;;;;;;5035295;28;20208;-82
2022/06/07 01:27:33;;;;;;;8.50;5.10;;;15.50;97.30;;;;;;5035218;28;20579;-82
2022/06/07 01:29:58;;;;;;;8.20;5.23;;;15.50;97.30;;;;;;5052799;28;20955;-82
2022/06/07 01:32:24;;;;;;;6.77;4.70;;;15.50;97.30;;;;;;5035066;28;20231;-82
2022/06/07 01:34:49;;;;;;;7.00;4.40;;;15.40;97.30;;;;;;5034948;28;20573;-82
2022/06/07 01:37:18;;;;;;;8.03;5.20;;;15.40;97.30;;;;;;5035139;28;20485;-82
2022/06/07 01:42:28;;;;;;;6.50;4.83;;;15.30;97.30;;;;;;5053040;28;20627;-82
2022/06/07 01:44:54;;;;;;;5.93;4.53;;;15.30;97.30;;;;;;5034645;28;20545;-82
2022/06/07 01:47:26;;;;;;;12.43;4.30;;;15.30;97.30;;;;;;5035032;28;20786;-82
2022/06/07 01:49:52;;;;;;;6.27;5.10;;;15.30;97.30;;;;;;5034754;28;20704;-82
2022/06/07 01:52:20;;;;;;;5.60;4.50;;;15.30;97.30;;;;;;5052696;28;20525;-82
2022/06/07 01:54:45;;;;;;;9.00;4.43;;;15.30;97.30;;;;;;5034666;28;20632;-82
2022/06/07 01:57:12;;;;;;;9.57;4.60;;;15.30;97.30;;;;;;5035192;28;20577;-82
2022/06/07 01:59:40;;;;;;;6.37;4.10;;;15.30;97.30;;;;;;5035138;28;20675;-82
2022/06/07 02:02:07;;;;;;;9.10;3.93;;;15.30;97.30;;;;;;5034991;28;20415;-82
2022/06/07 02:04:39;;;;;;;12.77;5.00;;;15.30;97.30;;;;;;5034955;28;20512;-81
2022/06/07 02:07:06;;;;;;;9.20;4.40;;;15.20;97.30;;;;;;5033900;28;20453;-82
2022/06/07 02:09:32;;;;;;;9.10;5.07;;;15.20;97.30;;;;;;5034740;28;20422;-82
2022/06/07 02:11:59;;;;;;;8.47;4.67;;;15.20;97.30;;;;;;5052521;28;20410;-82
2022/06/07 02:14:25;;;;;;;6.37;4.60;;;15.20;97.30;;;;;;5034634;28;20414;-82
2022/06/07 02:16:50;;;;;;;6.60;4.50;;;15.20;97.30;;;;;;5034206;28;20441;-82
2022/06/07 02:19:16;;;;;;;10.63;5.13;;;15.20;97.30;;;;;;5034632;28;20834;-82
2022/06/07 02:21:42;;;;;;;6.83;4.60;;;15.20;97.30;;;;;;5034151;28;20206;-82
2022/06/07 02:24:08;;;;;;;8.13;5.00;;;15.20;97.30;;;;;;5034272;28;20307;-82
2022/06/07 02:26:51;;;;;;;6.53;5.03;;;15.20;97.30;;;;;;5033938;28;20488;-82
2022/06/07 02:29:27;;;;;;;13.63;5.80;;;15.20;97.30;;;;;;5033826;28;20465;-81
2022/06/07 02:31:58;;;;;;;13.17;5.43;;;15.20;97.30;;;;;;5033680;28;20896;-82
2022/06/07 02:34:24;;;;;;;8.00;4.83;;;15.20;97.30;;;;;;5033757;28;20430;-82
2022/06/07 02:36:54;;;;;;;11.70;4.93;;;15.20;97.30;;;;;;5033975;28;20442;-83
2022/06/07 02:39:19;;;;;;;13.37;5.43;;;15.10;97.30;;;;;;5033832;28;20437;-82
2022/06/07 02:41:46;;;;;;;12.67;5.23;;;15.10;97.30;;;;;;5033686;28;20931;-82
2022/06/07 02:44:12;;;;;;;7.40;5.50;;;15.10;97.30;;;;;;5019799;28;20258;-82
2022/06/07 02:46:38;;;;;;;12.00;5.93;;;15.10;97.30;;;;;;5033452;28;20850;-82
2022/06/07 02:49:03;;;;;;;11.40;5.23;;;15.10;97.30;;;;;;5033660;28;20685;-82
2022/06/07 02:51:29;;;;;;;5.67;4.33;;;15.10;97.30;;;;;;5034078;28;20176;-83
2022/06/07 02:53:56;;;;;;;12.30;5.93;;;15.10;97.30;;;;;;5034257;28;20325;-82
2022/06/07 02:56:22;;;;;;;9.20;4.70;;;15.10;97.30;;;;;;5033676;28;20567;-82
2022/06/07 02:58:48;;;;;;;10.30;5.50;;;15.10;97.30;;;;;;5025889;28;20525;-82
2022/06/07 03:01:13;;;;;;;8.93;4.57;;;15.10;97.30;;;;;;5028015;28;20224;-84
2022/06/07 03:03:39;;;;;;;6.60;4.13;;;15.10;97.30;;;;;;5033518;28;20364;-82
2022/06/07 03:06:05;;;;;;;9.23;5.53;;;15.10;97.30;;;;;;5033448;28;20200;-83
2022/06/07 03:08:30;;;;;;;6.40;5.00;;;15.10;97.30;;;;;;5033247;28;20191;-83
2022/06/07 03:10:57;;;;;;;7.13;5.10;;;15.10;97.30;;;;;;5033358;28;20186;-82
2022/06/07 03:13:23;;;;;;;9.70;4.50;;;15.10;97.30;;;;;;5033044;28;20187;-83
2022/06/07 03:15:49;;;;;;;6.73;4.90;;;15.10;97.30;;;;;;5029878;28;20416;-83
2022/06/07 03:18:15;;;;;;;7.67;5.37;;;15.10;97.30;;;;;;5029414;28;20952;-83
2022/06/07 03:20:43;;;;;;;7.23;5.33;;;15.20;97.30;;;;;;5033023;28;20263;-83
2022/06/07 03:23:09;;;;;;;7.90;5.57;;;15.20;97.30;;;;;;5030461;28;20788;-82
2022/06/07 03:25:35;;;;;;;7.50;4.97;;;15.20;97.30;;;;;;5030410;28;20415;-83
2022/06/07 03:28:01;;;;;;;7.90;5.30;;;15.20;97.30;;;;;;5029976;28;20203;-83
2022/06/07 03:30:26;;;;;;;7.30;5.00;;;15.30;97.30;;;;;;5026731;28;20435;-82
2022/06/07 03:32:54;;;;;;;15.90;6.23;;;15.30;97.30;;;;;;5033428;28;20231;-83
2022/06/07 03:35:21;;;;;;;6.03;5.03;;;15.30;97.30;;;;;;5030219;28;20712;-82
2022/06/07 03:37:47;;;;;;;6.60;5.57;;;15.30;97.30;;;;;;5033296;28;20466;-83
2022/06/07 03:40:42;;;;;;;7.93;5.47;;;15.30;97.30;;;;;;5033225;28;20480;-82
2022/06/07 03:43:00;;;;;;;7.33;5.23;;;15.30;97.30;;;;;;5050386;28;20195;-83
2022/06/07 03:45:25;;;;;;;7.77;5.30;;;15.30;97.30;;;;;;5033334;28;20825;-82
2022/06/07 03:47:51;;;;;;;8.97;5.57;;;15.30;97.30;;;;;;5041511;28;20279;-83
2022/06/07 03:50:17;;;;;;;7.77;5.80;;;15.30;97.30;;;;;;5022999;28;20180;-83
2022/06/07 03:52:42;;;;;;;7.57;5.40;;;15.30;97.30;;;;;;5030594;28;20271;-82
2022/06/07 03:55:08;;;;;;;10.40;6.27;;;15.30;97.30;;;;;;5025550;28;20195;-82
2022/06/07 03:57:34;;;;;;;7.93;5.10;;;15.40;97.30;;;;;;5032831;28;20234;-83
2022/06/07 03:59:59;;;;;;;12.07;6.70;;;15.40;97.30;;;;;;5019694;28;20554;-82
2022/06/07 04:02:26;;;;;;;14.00;6.30;;;15.40;97.30;;;;;;5018044;28;20182;-82
2022/06/07 04:04:54;;;;;;;10.63;6.17;;;15.40;97.30;;;;;;5041707;28;20208;-82
2022/06/07 04:10:05;;;;;;;10.27;5.83;;;15.50;97.30;;;;;;5051501;28;20554;-82
2022/06/07 04:12:35;;;;;;;8.53;6.13;;;15.50;97.30;;;;;;5041064;28;20411;-83
2022/06/07 04:15:01;;;;;;;7.83;5.93;;;15.50;97.30;;;;;;5031498;28;20426;-83
2022/06/07 04:17:27;;;;;;;7.27;5.70;;;15.60;97.30;;;;;;5032884;28;20457;-82
2022/06/07 04:19:55;;;;;;;12.03;5.77;;;15.60;97.30;;;;;;5029816;28;20843;-83
2022/06/07 04:22:25;;;;;;;9.33;5.37;;;15.60;97.30;;;;;;5050328;28;20428;-83
2022/06/07 04:24:54;;;;;;;9.00;5.30;;;15.60;97.30;;;;;;5032893;28;20875;-83
2022/06/07 04:27:20;;;;;;;10.37;6.07;;;15.60;97.30;;;;;;5024588;28;20603;-82
2022/06/07 04:29:46;;;;;;;10.03;5.60;;;15.60;97.30;;;;;;5032451;28;20438;-83
2022/06/07 04:32:12;;;;;;;8.33;6.37;;;15.60;97.30;;;;;;5036516;28;20231;-82
2022/06/07 04:34:38;;;;;;;11.17;5.27;;;15.60;97.30;;;;;;5030657;28;20431;-83
2022/06/07 04:37:05;;;;;;;7.97;4.90;;;15.70;97.30;;;;;;5044349;28;20794;-82
2022/06/07 04:39:31;;;;;;;10.80;5.93;;;15.70;97.30;;;;;;5017706;28;20188;-82
2022/06/07 04:41:57;;;;;;;18.27;5.47;;;15.70;97.30;;;;;;5024557;28;20423;-83
2022/06/07 04:44:22;;;;;;;7.13;5.30;;;15.70;97.30;;;;;;5037629;28;20199;-83
2022/06/07 04:46:49;;;;;;;6.63;4.97;;;15.70;97.30;;;;;;5037725;28;20468;-83
2022/06/07 04:49:15;;;;;;;7.30;5.37;;;15.80;97.30;;;;;;5036018;28;20541;-83
2022/06/07 04:51:40;;;;;;;7.83;5.10;;;15.80;97.30;;;;;;5035239;28;20421;-83
2022/06/07 04:54:06;;;;;;;8.40;5.10;;;15.90;97.30;;;;;;5035054;28;20450;-82
2022/06/07 04:56:35;;;;;;;7.03;4.73;;;15.90;97.30;;;;;;5035653;28;20206;-82
2022/06/07 04:59:02;;;;;;;9.97;4.40;;;16.00;97.30;;;;;;5022887;28;20267;-83
2022/06/07 05:01:33;;;;;;;7.00;4.40;;;16.00;97.30;;;;;;5034061;28;20420;-82
2022/06/07 05:03:59;;;;;;;5.53;3.67;;;16.00;97.30;;;;;;5021419;28;21030;-82
2022/06/07 05:06:28;;;;;;;5.33;3.33;;;16.10;97.30;;;;;;5035810;28;20569;-83
2022/06/07 05:08:58;;;;;;;7.30;3.50;;;16.10;97.30;;;;;;5035959;28;20266;-83
2022/06/07 05:11:25;;;;;;;4.90;2.90;;;16.10;97.30;;;;;;5036042;28;20429;-83
2022/06/07 05:13:59;;;;;;;4.33;2.87;;;16.10;97.30;;;;;;5035627;28;20423;-83
2022/06/07 05:16:26;;;;;;;5.20;3.17;;;16.10;97.30;;;;;;5035261;28;20496;-83
2022/06/07 05:18:54;;;;;;;6.00;3.20;;;16.20;97.30;;;;;;5035987;28;20469;-82
2022/06/07 05:21:22;;;;;;;5.80;3.10;;;16.20;97.30;;;;;;5018609;28;20496;-83
2022/06/07 05:23:48;;;;;;;7.67;3.03;;;16.20;97.30;;;;;;5035642;28;20446;-83
2022/06/07 05:26:33;;;;;;;7.13;4.20;;;16.20;97.30;;;;;;5034109;28;20437;-83
2022/06/07 05:28:59;;;;;;;4.00;2.90;;;16.30;97.30;;;;;;5023250;28;20440;-83
2022/06/07 05:31:25;;;;;;;5.90;3.17;;;16.30;97.30;;;;;;5035156;28;20458;-82
2022/06/07 05:33:51;;;;;;;4.53;3.03;;;16.40;97.30;;;;;;5035498;28;20525;-82
2022/06/07 05:36:18;;;;;;;4.67;3.10;;;16.40;97.30;;;;;;5035412;28;20199;-83
2022/06/07 05:38:45;;;;;;;6.20;3.10;;;16.50;97.30;;;;;;5035213;28;20526;-83
2022/06/07 05:41:17;;;;;;;5.80;3.10;;;16.50;97.30;;;;;;5029603;28;20439;-82
2022/06/07 05:43:44;;;;;;;4.47;3.23;;;16.60;97.30;;;;;;5026892;28;20549;-82
2022/06/07 05:46:10;;;;;;;6.43;2.73;;;16.60;97.30;;;;;;5035354;28;20959;-82
2022/06/07 05:48:35;;;;;;;4.87;2.83;;;16.60;97.30;;;;;;5035128;28;20595;-83
2022/06/07 05:51:05;;;;;;;3.00;2.40;;;16.70;97.30;;;;;;5053064;28;20605;-82
2022/06/07 05:53:31;;;;;;;4.83;3.37;;;16.70;97.30;;;;;;5034981;28;20184;-83
2022/06/07 05:56:03;;;;;;;4.83;2.60;;;16.70;97.30;;;;;;5035254;28;20454;-83
2022/06/07 05:58:29;;;;;;;4.20;2.80;;;16.80;97.30;;;;;;5035043;28;20407;-83
2022/06/07 06:00:54;;;;;;;7.23;3.73;;;16.80;97.30;;;;;;5034791;28;20793;-83
2022/06/07 06:03:20;;;;;;;3.30;2.77;;;16.80;97.30;;;;;;5034399;28;20554;-83
2022/06/07 06:05:47;;;;;;;4.53;3.17;;;16.80;97.30;;;;;;5052585;28;20256;-83
2022/06/07 06:11:05;;;;;;;7.83;3.13;;;16.80;97.30;;;;;;5053031;28;20558;-82
2022/06/07 06:13:30;;;;;;;5.40;2.97;;;16.90;97.30;;;;;;5020426;28;20962;-83
2022/06/07 06:16:09;;;;;;;6.77;3.50;;;16.90;97.30;;;;;;5034849;28;20447;-83
2022/06/07 06:18:36;;;;;;;5.40;3.50;;;16.90;97.30;;;;;;5034643;28;20175;-82
2022/06/07 06:21:02;;;;;;;6.33;3.50;;;17.00;97.30;;;;;;5034741;28;20775;-83
2022/06/07 06:23:28;;;;;;;4.63;3.30;;;17.00;97.30;;;;;;5034529;28;20806;-83
2022/06/07 06:25:53;;;;;;;5.63;3.13;;;17.10;97.30;;;;;;5034744;28;20425;-83
2022/06/07 06:28:19;;;;;;;4.03;3.10;;;17.10;97.30;;;;;;5034595;28;20182;-83
2022/06/07 06:30:47;;;;;;;7.33;3.50;;;17.10;97.30;;;;;;5034339;28;20665;-83
2022/06/07 06:33:14;;;;;;;4.37;3.60;;;17.20;97.30;;;;;;5034122;28;20422;-81
2022/06/07 06:35:47;;;;;;;6.67;4.20;;;17.20;97.30;;;;;;5034022;28;20437;-83
2022/06/07 06:38:12;;;;;;;7.00;3.80;;;17.20;97.30;;;;;;5020889;28;20506;-83
2022/06/07 06:40:38;;;;;;;5.50;3.23;;;17.30;97.30;;;;;;5046111;28;20605;-83
2022/06/07 06:43:04;;;;;;;4.30;3.40;;;17.30;97.30;;;;;;5014218;28;20188;-83
2022/06/07 06:45:30;;;;;;;6.33;4.50;;;17.30;97.30;;;;;;5027313;28;20435;-83
2022/06/07 06:47:55;;;;;;;4.23;3.50;;;17.30;97.30;;;;;;5034049;28;20203;-82
2022/06/07 06:50:21;;;;;;;9.90;3.37;;;17.40;97.30;;;;;;5034158;28;20215;-83
2022/06/07 06:52:46;;;;;;;7.60;3.50;;;17.40;97.30;;;;;;5033652;28;20195;-83
2022/06/07 06:55:12;;;;;;;6.30;3.87;;;17.50;97.30;;;;;;5033315;28;20179;-82
2022/06/07 06:57:38;;;;;;;10.33;4.13;;;17.50;97.30;;;;;;5033351;28;20598;-82
2022/06/07 07:00:05;;;;;;;8.57;3.90;;;17.60;97.30;;;;;;5033563;28;20176;-83
2022/06/07 07:02:31;;;;;;;6.97;3.53;;;17.70;97.30;;;;;;5033856;28;20645;-83
2022/06/07 07:04:56;;;;;;;7.23;4.13;;;17.80;97.30;;;;;;5033578;28;20457;-82
2022/06/07 07:07:22;;;;;;;7.10;4.10;;;17.90;97.30;;;;;;5033645;28;20195;-84
2022/06/07 07:09:49;;;;;;;5.70;3.70;;;18.00;97.30;;;;;;5033357;28;20249;-83
2022/06/07 07:12:16;;;;;;;5.73;3.30;;;18.10;97.30;;;;;;5033434;28;20681;-83
2022/06/07 07:14:41;;;;;;;6.70;3.60;;;18.20;97.30;;;;;;5033293;28;20426;-83
2022/06/07 07:17:07;;;;;;;7.20;3.90;;;18.30;97.30;;;;;;5035069;28;20438;-83
2022/06/07 07:19:33;;;;;;;6.40;3.10;;;18.30;97.30;;;;;;5040883;28;20187;-83
2022/06/07 07:21:58;;;;;;;5.40;3.73;;;18.40;97.30;;;;;;5046580;28;20266;-83
2022/06/07 07:24:25;;;;;;;5.23;3.50;;;18.60;97.30;;;;;;5032960;28;20695;-82
2022/06/07 07:26:51;;;;;;;4.53;3.10;;;18.70;97.30;;;;;;5033417;28;20200;-83
2022/06/07 07:29:19;;;;;;;4.37;2.80;;;18.90;97.30;;;;;;5033169;28;20414;-82
2022/06/07 07:31:45;;;;;;;5.23;2.37;;;19.00;97.30;;;;;;5050546;28;20457;-83
2022/06/07 07:34:14;;;;;;;5.57;2.80;;;19.10;97.20;;;;;;5032818;28;20430;-83
2022/06/07 07:36:53;;;;;;;8.33;2.70;;;19.20;94.80;;;;;;5025337;28;20454;-83
2022/06/07 07:39:19;;;;;;;4.97;2.90;;;19.30;95.50;;;;;;5032767;28;20418;-83
2022/06/07 07:41:51;;;;;;;6.70;2.80;;;19.30;95.50;;;;;;5032031;28;20460;-82
2022/06/07 07:44:17;;;;;;;11.60;2.50;;;19.30;95.80;;;;;;5039689;28;20827;-82
2022/06/07 07:46:44;;;;;;;5.93;2.90;;;19.30;94.80;;;;;;5029162;28;20438;-82
2022/06/07 07:49:13;;;;;;;3.03;2.20;;;19.30;94.40;;;;;;5034186;28;20418;-82
2022/06/07 07:51:41;;;;;;;3.13;2.17;;;19.40;94.20;;;;;;5042356;28;20501;-83
2022/06/07 07:54:10;;;;;;;4.50;2.60;;;19.40;94.50;;;;;;5034366;28;20788;-82
2022/06/07 07:56:37;;;;;;;5.80;2.73;;;19.60;94.50;;;;;;5032092;28;20959;-82
2022/06/07 07:59:04;;;;;;;4.67;3.20;;;19.70;93.90;;;;;;5032215;28;20457;-83
2022/06/07 08:01:30;;;;;;;4.67;2.93;;;19.80;93.90;;;;;;5032193;28;20421;-82
2022/06/07 08:03:58;;;;;;;6.07;2.77;;;19.80;93.20;;;;;;5032009;28;20454;-82
2022/06/07 08:06:25;;;;;;;3.40;2.67;;;19.90;93.20;;;;;;5023107;28;20457;-82
2022/06/07 08:08:53;;;;;;;5.13;2.80;;;19.90;93.40;;;;;;5037200;28;20410;-83
2022/06/07 08:11:21;;;;;;;7.77;3.20;;;20.00;93.90;;;;;;5027985;28;20419;-83
2022/06/07 08:13:47;;;;;;;4.00;3.13;;;20.00;94.50;;;;;;5038416;28;20433;-81
2022/06/07 08:16:13;;;;;;;6.30;3.60;;;20.10;94.70;;;;;;5040142;28;20468;-80
2022/06/07 08:18:40;;;;;;;4.87;3.07;;;20.10;95.60;;;;;;5044623;28;20191;-80
2022/06/07 08:21:11;;;;;;;6.17;2.80;;;20.10;95.10;;;;;;5046443;28;20199;-81
2022/06/07 08:23:37;;;;;;;6.30;3.00;;;20.10;93.40;;;;;;5047510;28;20464;-81
2022/06/07 08:26:06;;;;;;;4.03;2.27;;;20.10;93.50;;;;;;5048250;28;20466;-81
2022/06/07 08:28:32;;;;;;;5.57;2.83;;;20.10;94.20;;;;;;5047525;28;20446;-80
2022/06/07 08:30:58;;;;;;;3.77;2.83;;;20.10;94.30;;;;;;5047515;28;20763;-81
2022/06/07 08:39:01;;;;;;;3.50;2.27;;;20.30;94.10;;;;;;5061429;28;21048;-81
2022/06/07 08:41:48;;;;;;;3.53;2.30;;;20.30;92.70;;;;;;5046891;28;20913;-80
2022/06/07 08:44:49;;;;;;;3.80;2.50;;;20.40;93.20;;;;;;5045806;28;20461;-81
2022/06/07 08:47:59;;;;;;;4.17;2.30;;;20.40;92.90;;;;;;5063246;28;20455;-81
2022/06/07 08:51:28;;;;;;;2.90;2.20;;;20.50;93.20;;;;;;5061226;28;20457;-81
2022/06/07 08:54:58;;;;;;;3.63;2.23;;;20.60;92.00;;;;;;5002927;28;20504;-80
2022/06/07 08:57:36;;;;;;;4.47;2.83;;;20.60;90.90;;;;;;4965322;28;20536;-81
2022/06/07 09:00:29;;;;;;;4.40;2.27;;;20.60;91.40;;;;;;4981350;28;20421;-81
2022/06/07 09:03:48;;;;;;;2.90;2.13;;;20.70;91.20;;;;;;5020491;28;20945;-81
2022/06/07 09:06:27;;;;;;;4.03;2.60;;;20.70;89.40;;;;;;4940040;28;21299;-81
2022/06/07 09:09:19;;;;;;;;;;;;;;;;;;;;;
2022/06/07 09:12:17;;;;;;;2.43;2.20;;;20.90;90.10;;;;;;4992196;28;20517;-81
2022/06/07 09:15:28;;;;;;;;;;;;;;;;;;;;;
2022/06/07 09:18:07;;;;;;;4.40;2.50;;;21.00;89.30;;;;;;4989411;28;21128;-81
2022/06/07 09:21:18;;;;;;;2.40;2.20;;;21.00;89.50;;;;;;4966544;28;20493;-81
2022/06/07 09:23:56;;;;;;;2.37;2.07;;;21.10;89.00;;;;;;4979567;28;20482;-81
2022/06/07 09:27:07;;;;;;;3.83;2.80;;;21.40;89.70;;;;;;5037710;28;20465;-81
2022/06/07 09:29:47;;;;;;;4.07;2.20;;;21.60;89.80;;;;;;5054759;28;20414;-81
2022/06/07 09:32:50;;;;;;;;;;;;;;;;;;;;;
2022/06/07 09:36:08;;;;;;;5.43;2.30;;;22.00;87.50;;;;;;5052016;28;20502;-81
2022/06/07 09:39:11;;;;;;;;;;;;;;;;;;;;;
2022/06/07 09:41:46;;;;;;;2.50;2.10;;;22.00;88.30;;;;;;4973894;28;21065;-81
2022/06/07 09:44:56;;;;;;;2.20;2.07;;;22.00;87.00;;;;;;4961320;28;20457;-82
2022/06/07 09:47:28;;;;;;;4.57;1.80;;;22.10;86.70;;;;;;4974263;28;20444;-81
2022/06/07 09:50:06;;;;;;;4.50;3.23;;;22.10;86.50;;;;;;5001897;28;20421;-81
2022/06/07 09:53:09;;;;;;;3.87;2.13;;;22.00;85.50;;;;;;5043268;28;20444;-81
2022/06/07 09:56:06;;;;;;;4.80;2.20;;;21.90;84.90;;;;;;5044658;28;20491;-81
2022/06/07 09:58:57;;;;;;;17.63;2.63;;;21.80;85.20;;;;;;5043633;28;20414;-81
2022/06/07 10:01:37;;;;;;;3.30;2.10;;;21.60;85.70;;;;;;5044530;28;20438;-80
2022/06/07 10:04:26;;;;;;;2.50;2.00;;;21.50;85.80;;;;;;5044006;28;20449;-80
2022/06/07 10:07:08;;;;;;;8.40;2.77;;;21.40;86.00;;;;;;5038931;28;21065;-80
2022/06/07 10:10:08;;;;;;;3.07;2.47;;;21.30;85.40;;;;;;5038825;28;20446;-81
2022/06/07 10:13:10;;;;;;;4.20;2.10;;;21.20;85.60;;;;;;5054222;28;20456;-81
2022/06/07 10:15:43;;;;;;;2.30;2.10;;;21.10;86.20;;;;;;4950333;28;21035;-81
2022/06/07 10:18:27;;;;;;;3.40;2.10;;;21.10;86.20;;;;;;5040171;28;20410;-81
2022/06/07 10:21:16;;;;;;;3.33;1.97;;;21.20;87.20;;;;;;5040549;28;20431;-81
2022/06/07 10:23:59;;;;;;;2.37;2.17;;;21.40;86.40;;;;;;5056224;28;20461;-81
2022/06/07 10:26:48;;;;;;;3.40;1.90;;;21.60;87.20;;;;;;5039712;28;20449;-82
2022/06/07 10:29:40;;;;;;;4.80;2.17;;;21.80;85.80;;;;;;5027379;28;20939;-82
2022/06/07 10:32:28;;;;;;;3.10;1.97;;;21.90;84.40;;;;;;5017750;28;20493;-81
2022/06/07 10:34:55;;;;;;;3.53;2.17;;;21.90;83.30;;;;;;5037316;28;20422;-82
2022/06/07 10:37:27;;;;;;;1.77;1.60;;;22.00;84.90;;;;;;5037745;28;20481;-82
2022/06/07 10:40:17;;;;;;;2.07;1.90;;;22.00;83.00;;;;;;5041950;28;20421;-80
2022/06/07 10:43:01;;;;;;;4.70;1.80;;;22.10;83.30;;;;;;5040345;28;20415;-81
2022/06/07 10:45:33;;;;;;;4.57;1.87;;;22.20;84.30;;;;;;5038459;28;20454;-81
2022/06/07 10:48:04;;;;;;;2.30;1.77;;;22.30;84.00;;;;;;5040607;28;20447;-81
2022/06/07 10:50:42;;;;;;;4.63;1.60;;;22.40;83.50;;;;;;5038199;28;20418;-81
2022/06/07 10:53:25;;;;;;;5.90;1.73;;;22.60;81.70;;;;;;5031026;28;20472;-81
2022/06/07 10:56:07;;;;;;;3.03;1.90;;;22.70;82.00;;;;;;5040421;28;20441;-81
2022/06/07 10:58:43;;;;;;;2.53;2.10;;;22.80;80.60;;;;;;5038482;28;20422;-81
2022/06/07 11:01:35;;;;;;;4.83;1.97;;;23.00;81.50;;;;;;5033733;28;20422;-82
2022/06/07 11:10:17;;;;;;;3.10;1.77;;;23.40;77.30;;;;;;5057435;28;20460;-81
2022/06/07 11:13:17;;;;;;;2.57;1.43;;;23.40;77.50;;;;;;5037069;28;20446;-81
2022/06/07 11:15:58;;;;;;;1.50;1.37;;;23.40;76.80;;;;;;5036550;28;20436;-81
2022/06/07 11:18:26;;;;;;;2.37;1.60;;;23.30;77.00;;;;;;5037533;28;20425;-82
2022/06/07 11:21:00;;;;;;;2.40;1.60;;;23.10;76.80;;;;;;5033420;28;20489;-83
2022/06/07 11:23:30;;;;;;;3.83;1.90;;;23.00;77.80;;;;;;5027662;28;20421;-82
2022/06/07 11:26:08;;;;;;;7.00;1.67;;;23.00;78.40;;;;;;5031466;28;20775;-83
2022/06/07 11:28:42;;;;;;;2.50;1.60;;;23.00;78.30;;;;;;5029231;28;20438;-83
2022/06/07 11:31:23;;;;;;;4.03;1.93;;;23.10;78.30;;;;;;5028540;28;20470;-85
2022/06/07 11:33:52;;;;;;;3.40;1.70;;;23.10;77.90;;;;;;5028672;28;20518;-83
2022/06/07 11:36:23;;;;;;;2.50;1.50;;;23.00;78.60;;;;;;5029303;28;20475;-82
2022/06/07 11:38:55;;;;;;;2.43;1.50;;;23.00;78.40;;;;;;5027330;28;20423;-83
2022/06/07 11:41:38;;;;;;;2.53;1.40;;;22.90;78.10;;;;;;5028527;28;20427;-83
2022/06/07 11:44:10;;;;;;;1.73;1.67;;;23.00;79.30;;;;;;5030769;28;20793;-82
2022/06/07 11:46:35;;;;;;;1.70;1.60;;;22.90;78.50;;;;;;5026095;28;20456;-85
2022/06/07 11:49:23;;;;;;;4.50;1.90;;;22.90;77.60;;;;;;5028805;28;20423;-82
2022/06/07 11:52:06;;;;;;;1.93;1.70;;;22.90;78.20;;;;;;5028163;28;20188;-82
2022/06/07 11:54:36;;;;;;;2.53;1.60;;;22.90;78.30;;;;;;5028424;28;20430;-82
2022/06/07 11:57:36;;;;;;;2.20;1.90;;;22.90;79.00;;;;;;5028606;28;20451;-82
2022/06/07 12:00:17;;;;;;;2.50;1.70;;;22.80;77.70;;;;;;5028160;28;20453;-82
2022/06/07 12:03:04;;;;;;;6.07;1.60;;;22.70;78.70;;;;;;5025276;28;20427;-84
2022/06/07 12:05:54;;;;;;;2.20;1.87;;;22.70;77.90;;;;;;5024969;28;20478;-84
2022/06/07 12:08:34;;;;;;;2.20;2.00;;;22.70;78.80;;;;;;5025479;28;20435;-82
2022/06/07 12:11:21;;;;;;;2.43;1.57;;;22.80;80.30;;;;;;5028328;28;20529;-83
2022/06/07 12:13:56;;;;;;;2.70;1.47;;;23.10;80.70;;;;;;5023566;28;20422;-82
2022/06/07 12:16:39;;;;;;;1.30;1.27;;;23.30;79.90;;;;;;5028917;28;20557;-83
2022/06/07 12:19:15;;;;;;;2.20;1.70;;;23.40;77.30;;;;;;5028495;28;20789;-82
2022/06/07 12:21:45;;;;;;;3.07;1.73;;;23.50;77.90;;;;;;5028841;28;20435;-82
2022/06/07 12:24:15;;;;;;;2.07;1.70;;;23.70;77.70;;;;;;5028894;28;20489;-85
2022/06/07 12:26:46;;;;;;;3.10;1.50;;;23.70;77.10;;;;;;5030538;28;20451;-82
2022/06/07 12:29:17;;;;;;;4.90;2.03;;;23.60;77.40;;;;;;5028547;28;20419;-82
2022/06/07 12:31:53;;;;;;;3.30;1.63;;;23.50;77.60;;;;;;5028796;28;20982;-82
2022/06/07 12:34:24;;;;;;;2.43;1.30;;;23.50;77.00;;;;;;5021510;28;20816;-84
2022/06/07 12:36:57;;;;;;;2.30;1.40;;;23.60;77.90;;;;;;5028344;28;20443;-83
2022/06/07 12:39:25;;;;;;;3.17;1.70;;;23.80;77.50;;;;;;5027902;28;20847;-83
2022/06/07 12:41:55;;;;;;;2.13;1.60;;;23.90;76.80;;;;;;5027648;28;20427;-83
2022/06/07 12:44:26;;;;;;;2.07;1.60;;;23.90;76.60;;;;;;5034407;28;20462;-82
2022/06/07 12:46:52;;;;;;;1.93;1.70;;;23.80;75.80;;;;;;5024996;28;20447;-83
2022/06/07 12:49:22;;;;;;;1.80;1.70;;;23.60;75.90;;;;;;5028058;28;20431;-83
2022/06/07 12:52:16;;;;;;;2.00;1.70;;;23.50;76.00;;;;;;5028739;28;20427;-83
2022/06/07 12:54:48;;;;;;;1.87;1.40;;;23.50;76.90;;;;;;5028238;28;20936;-85
2022/06/07 12:57:45;;;;;;;1.57;1.40;;;23.70;75.30;;;;;;5033113;28;20489;-82
2022/06/07 13:00:16;;;;;;;4.00;1.20;;;24.00;76.90;;;;;;5029037;28;20449;-82
2022/06/07 13:02:46;;;;;;;2.33;1.30;;;24.10;74.50;;;;;;5028832;28;20418;-83
2022/06/07 13:05:29;;;;;;;2.17;1.33;;;24.10;74.40;;;;;;5031237;28;20458;-83
2022/06/07 13:07:57;;;;;;;1.93;1.20;;;24.00;73.60;;;;;;5027695;28;20435;-83
2022/06/07 13:10:26;;;;;;;1.20;1.10;;;24.00;72.50;;;;;;5030894;28;20415;-82
2022/06/07 13:12:57;;;;;;;1.53;1.10;;;24.00;73.30;;;;;;5069442;23;21002;-83
2022/06/07 13:15:29;;;;;;;2.07;1.30;;;24.10;73.70;;;;;;5050693;28;20445;-83
2022/06/07 13:18:00;;;;;;;2.53;1.30;;;24.10;72.90;;;;;;5040714;28;20431;-83
2022/06/07 13:20:39;;;;;;;1.87;1.10;;;24.10;73.20;;;;;;5050947;28;20797;-83
2022/06/07 13:23:18;;;;;;;2.90;1.47;;;24.20;73.70;;;;;;5059196;28;20506;-83
2022/06/07 13:25:47;;;;;;;2.53;1.20;;;24.30;73.30;;;;;;5044733;28;20454;-86
2022/06/07 13:28:17;;;;;;;1.50;1.03;;;24.30;72.40;;;;;;5043787;28;20419;-84
2022/06/07 13:30:45;;;;;;;2.30;1.60;;;24.30;72.20;;;;;;5044136;28;20488;-84
2022/06/07 13:33:29;;;;;;;3.30;1.20;;;24.30;73.00;;;;;;5048611;28;20418;-84
2022/06/07 13:36:04;;;;;;;2.50;1.37;;;24.40;72.80;;;;;;5048402;28;20419;-84
2022/06/07 13:38:39;;;;;;;2.13;1.70;;;24.60;73.60;;;;;;5047006;28;20479;-84
2022/06/07 13:41:18;;;;;;;3.43;1.47;;;24.80;73.50;;;;;;5050977;28;20422;-85
2022/06/07 13:44:06;;;;;;;2.23;1.33;;;25.00;72.70;;;;;;5039207;28;20865;-84